createdAt,value
2023-01-17T00:02:20.995Z,98193.80
2023-01-17T00:05:12.351Z,98190.48
2023-01-17T00:07:58.692Z,98187.40
2023-01-17T00:10:28.301Z,98177.13
2023-01-17T00:13:03.882Z,98175.41
2023-01-17T00:15:32.447Z,98171.33
2023-01-17T00:18:00.463Z,98174.88
2023-01-17T00:20:50.973Z,98175.88
2023-01-17T00:23:40.973Z,98183.06
2023-01-17T00:26:14.912Z,98195.63
2023-01-17T00:28:43.818Z,98199.81
2023-01-17T00:31:13.868Z,98195.80
2023-01-17T00:33:41.996Z,98188.83
2023-01-17T00:36:10.899Z,98188.32
2023-01-17T00:38:40.424Z,98192.06
2023-01-17T00:41:11.281Z,98193.88
2023-01-17T00:43:58.094Z,98196.48
2023-01-17T00:46:44.590Z,98191.31
2023-01-17T00:49:31.264Z,98188.80
2023-01-17T00:52:18.095Z,98192.01
2023-01-17T00:55:04.752Z,98189.16
2023-01-17T00:57:51.587Z,98185.41
2023-01-17T01:00:38.146Z,98181.38
2023-01-17T01:03:28.659Z,98178.50
2023-01-17T01:06:15.500Z,98172.29
2023-01-17T01:09:02.524Z,98163.36
2023-01-17T01:11:48.770Z,98162.28
2023-01-17T01:14:35.452Z,98166.09
2023-01-17T01:17:22.459Z,98166.67
2023-01-17T01:20:09.165Z,98163.08
2023-01-17T01:22:55.765Z,98165.02
2023-01-17T01:25:42.486Z,98160.67
2023-01-17T01:28:31.912Z,98158.93
2023-01-17T01:31:22.488Z,98156.65
2023-01-17T01:33:52.271Z,98160.66
2023-01-17T01:36:21.162Z,98156.63
2023-01-17T01:38:50.432Z,98153.85
2023-01-17T01:41:18.503Z,98151.27
2023-01-17T01:43:52.891Z,98154.63
2023-01-17T01:46:24.107Z,98149.45
2023-01-17T01:48:58.945Z,98149.48
2023-01-17T01:51:33.464Z,98147.35
2023-01-17T01:54:08.199Z,98146.30
2023-01-17T01:56:37.657Z,98141.61
2023-01-17T01:59:10.530Z,98139.55
2023-01-17T02:01:38.761Z,98139.19
2023-01-17T02:04:12.077Z,98135.04
2023-01-17T02:06:46.014Z,98131.67
2023-01-17T02:09:17.142Z,98127.02
2023-01-17T02:11:47.445Z,98130.75
2023-01-17T02:14:21.061Z,98130.56
2023-01-17T02:17:12.258Z,98121.09
2023-01-17T02:19:51.963Z,98117.84
2023-01-17T02:22:57.313Z,98111.54
2023-01-17T02:25:57.091Z,98111.45
2023-01-17T02:28:50.261Z,98111.29
2023-01-17T02:31:23.344Z,98109.77
2023-01-17T02:34:00.524Z,98106.21
2023-01-17T02:36:46.586Z,98106.80
2023-01-17T02:39:22.864Z,98110.96
2023-01-17T02:42:04.777Z,98114.50
2023-01-17T02:44:41.939Z,98106.85
2023-01-17T02:47:28.301Z,98102.89
2023-01-17T02:50:05.427Z,98096.29
2023-01-17T02:53:02.515Z,98090.89
2023-01-17T02:55:39.344Z,98086.09
2023-01-17T02:58:19.340Z,98081.02
2023-01-17T03:00:58.018Z,98076.77
2023-01-17T03:03:34.480Z,98076.16
2023-01-17T03:06:11.820Z,98079.16
2023-01-17T03:08:43.419Z,98078.33
2023-01-17T03:11:12.615Z,98077.50
2023-01-17T03:13:41.342Z,98073.48
2023-01-17T03:16:20.751Z,98064.45
2023-01-17T03:18:49.400Z,98062.09
2023-01-17T03:21:17.642Z,98064.30
2023-01-17T03:23:45.760Z,98060.15
2023-01-17T03:26:13.863Z,98058.02
2023-01-17T03:28:41.902Z,98058.57
2023-01-17T03:31:09.933Z,98063.63
2023-01-17T03:33:37.837Z,98073.83
2023-01-17T03:36:05.961Z,98073.82
2023-01-17T03:38:33.880Z,98076.58
2023-01-17T03:41:01.768Z,98074.11
2023-01-17T03:43:29.771Z,98065.88
2023-01-17T03:46:07.053Z,98057.62
2023-01-17T03:48:35.004Z,98056.13
2023-01-17T03:51:03.059Z,98048.67
2023-01-17T03:53:30.908Z,98046.90
2023-01-17T03:55:58.909Z,98040.67
2023-01-17T03:58:26.738Z,98036.96
2023-01-17T04:00:54.728Z,98031.11
2023-01-17T04:03:22.645Z,98031.83
2023-01-17T04:05:50.707Z,98021.90
2023-01-17T04:08:18.911Z,98016.35
2023-01-17T04:10:46.826Z,98015.11
2023-01-17T04:13:16.792Z,98023.45
2023-01-17T04:15:46.111Z,98018.13
2023-01-17T04:18:14.113Z,98007.86
2023-01-17T04:20:42.253Z,98005.34
2023-01-17T04:23:10.454Z,98000.85
2023-01-17T04:25:38.453Z,97998.91
2023-01-17T04:28:06.555Z,97999.95
2023-01-17T04:30:34.590Z,98001.86
2023-01-17T04:33:03.071Z,98003.38
2023-01-17T04:35:31.778Z,98001.16
2023-01-17T04:37:59.938Z,98004.44
2023-01-17T04:40:29.600Z,97998.36
2023-01-17T04:42:58.037Z,97997.75
2023-01-17T04:45:26.259Z,97995.15
2023-01-17T04:47:54.095Z,97998.14
2023-01-17T04:50:21.962Z,98003.65
2023-01-17T04:52:49.900Z,98000.29
2023-01-17T04:55:17.986Z,98006.09
2023-01-17T04:57:45.864Z,98003.28
2023-01-17T05:00:14.321Z,98004.52
2023-01-17T05:02:42.355Z,98006.95
2023-01-17T05:05:10.848Z,98008.26
2023-01-17T05:07:39.200Z,98011.98
2023-01-17T05:10:07.604Z,98018.86
2023-01-17T05:12:35.467Z,98027.33
2023-01-17T05:15:03.637Z,98036.33
2023-01-17T05:17:31.569Z,98035.41
2023-01-17T05:19:59.557Z,98035.41
2023-01-17T05:22:27.404Z,98049.01
2023-01-17T05:24:55.422Z,98049.30
2023-01-17T05:27:25.817Z,98058.86
2023-01-17T05:29:53.754Z,98068.70
2023-01-17T05:32:21.753Z,98071.39
2023-01-17T05:34:51.195Z,98069.27
2023-01-17T05:37:19.198Z,98076.30
2023-01-17T05:39:47.087Z,98067.18
2023-01-17T05:42:15.431Z,98072.14
2023-01-17T05:44:46.353Z,98069.81
2023-01-17T05:47:15.357Z,98074.41
2023-01-17T05:49:45.895Z,98076.33
2023-01-17T05:52:14.315Z,98080.96
2023-01-17T05:54:42.199Z,98085.73
2023-01-17T05:57:10.222Z,98086.02
2023-01-17T05:59:38.086Z,98083.16
2023-01-17T06:02:06.079Z,98089.54
2023-01-17T06:04:34.066Z,98097.32
2023-01-17T06:07:02.226Z,98091.23
2023-01-17T06:09:30.265Z,98086.02
2023-01-17T06:11:58.141Z,98092.98
2023-01-17T06:14:26.107Z,98091.12
2023-01-17T06:16:54.274Z,98093.12
2023-01-17T06:19:22.218Z,98095.77
2023-01-17T06:21:50.758Z,98099.59
2023-01-17T06:24:18.920Z,98104.02
2023-01-17T06:26:48.687Z,98114.02
2023-01-17T06:29:17.764Z,98119.70
2023-01-17T06:31:45.734Z,98121.48
2023-01-17T06:34:13.625Z,98119.20
2023-01-17T06:36:41.815Z,98116.04
2023-01-17T06:39:10.995Z,98116.19
2023-01-17T06:41:38.946Z,98113.42
2023-01-17T06:44:08.033Z,98124.89
2023-01-17T06:46:36.364Z,98129.55
2023-01-17T06:49:04.332Z,98131.99
2023-01-17T06:51:32.485Z,98136.16
2023-01-17T06:54:01.341Z,98141.05
2023-01-17T06:56:33.434Z,98149.77
2023-01-17T06:59:01.334Z,98161.39
2023-01-17T07:01:29.648Z,98166.73
2023-01-17T07:03:58.132Z,98169.70
2023-01-17T07:06:28.857Z,98168.65
2023-01-17T07:08:56.971Z,98173.55
2023-01-17T07:11:25.050Z,98178.89
2023-01-17T07:13:53.133Z,98185.91
2023-01-17T07:16:21.103Z,98190.33
2023-01-17T07:18:49.800Z,98188.96
2023-01-17T07:21:17.712Z,98192.91
2023-01-17T07:23:45.591Z,98197.80
2023-01-17T07:26:13.603Z,98195.00
2023-01-17T07:28:41.492Z,98200.66
2023-01-17T07:31:09.366Z,98199.77
2023-01-17T07:33:37.320Z,98201.80
2023-01-17T07:36:07.454Z,98211.02
2023-01-17T07:38:35.791Z,98220.98
2023-01-17T07:41:03.898Z,98224.92
2023-01-17T07:43:31.939Z,98221.05
2023-01-17T07:46:02.120Z,98224.32
2023-01-17T07:48:30.620Z,98225.65
2023-01-17T07:50:58.811Z,98229.74
2023-01-17T07:53:29.033Z,98235.59
2023-01-17T07:56:02.726Z,98238.15
2023-01-17T07:58:32.136Z,98236.59
2023-01-17T08:01:09.319Z,98235.98
2023-01-17T08:03:40.169Z,98246.75
2023-01-17T08:06:22.157Z,98249.74
2023-01-17T08:08:50.896Z,98248.89
2023-01-17T08:11:18.985Z,98250.96
2023-01-17T08:13:46.946Z,98251.91
2023-01-17T08:16:15.485Z,98252.05
2023-01-17T08:18:43.514Z,98246.73
2023-01-17T08:21:15.247Z,98254.56
2023-01-17T08:23:47.380Z,98256.30
2023-01-17T08:26:21.421Z,98259.60
2023-01-17T08:28:55.891Z,98259.45
2023-01-17T08:31:24.872Z,98267.23
2023-01-17T08:33:52.920Z,98271.59
2023-01-17T08:36:20.843Z,98267.21
2023-01-17T08:38:52.869Z,98273.23
2023-01-17T08:41:23.250Z,98276.88
2023-01-17T08:43:52.155Z,98275.49
2023-01-17T08:46:20.139Z,98275.22
2023-01-17T08:48:48.144Z,98276.58
2023-01-17T08:51:16.249Z,98275.97
2023-01-17T08:53:44.099Z,98280.88
2023-01-17T08:56:12.115Z,98285.55
2023-01-17T08:58:41.482Z,98284.48
2023-01-17T09:01:09.580Z,98291.59
2023-01-17T09:03:40.771Z,98294.55
2023-01-17T09:06:14.050Z,98303.48
2023-01-17T09:08:47.121Z,98313.56
2023-01-17T09:11:17.397Z,98315.58
2023-01-17T09:13:45.444Z,98316.83
2023-01-17T09:16:13.542Z,98314.49
2023-01-17T09:18:41.529Z,98317.39
2023-01-17T09:21:17.577Z,98321.94
2023-01-17T09:23:46.215Z,98322.93
2023-01-17T09:26:40.472Z,98322.33
2023-01-17T09:29:08.411Z,98327.91
2023-01-17T09:31:36.389Z,98330.52
2023-01-17T09:34:04.502Z,98329.08
2023-01-17T09:36:34.077Z,98326.65
2023-01-17T09:39:03.646Z,98330.02
2023-01-17T09:41:34.756Z,98331.42
2023-01-17T09:44:02.630Z,98336.20
2023-01-17T09:46:33.782Z,98335.52
2023-01-17T09:49:28.060Z,98336.48
2023-01-17T09:51:56.066Z,98331.86
2023-01-17T09:54:27.768Z,98328.02
2023-01-17T09:57:10.727Z,98331.02
2023-01-17T10:00:03.312Z,98335.19
2023-01-17T10:02:56.199Z,98339.30
2023-01-17T10:05:58.091Z,98331.84
2023-01-17T10:08:57.556Z,98324.33
2023-01-17T10:11:44.046Z,98322.61
2023-01-17T10:14:11.970Z,98317.73
2023-01-17T10:17:10.033Z,98307.11
2023-01-17T10:20:05.365Z,98296.45
2023-01-17T10:22:51.426Z,98299.20
2023-01-17T10:25:39.703Z,98292.55
2023-01-17T10:28:32.794Z,98279.71
2023-01-17T10:31:08.025Z,98282.23
2023-01-17T10:33:44.664Z,98279.23
2023-01-17T10:36:20.558Z,98274.86
2023-01-17T10:38:53.224Z,98279.78
2023-01-17T10:41:38.357Z,98275.84
2023-01-17T10:44:19.718Z,98274.28
2023-01-17T10:46:54.543Z,98274.55
2023-01-17T10:49:25.267Z,98272.86
2023-01-17T10:51:59.883Z,98271.74
2023-01-17T10:54:46.619Z,98275.63
2023-01-17T10:57:27.310Z,98274.93
2023-01-17T11:00:00.721Z,98276.50
2023-01-17T11:02:36.891Z,98278.73
2023-01-17T11:05:20.486Z,98275.24
2023-01-17T11:08:04.313Z,98274.31
2023-01-17T11:10:40.307Z,98282.77
2023-01-17T11:13:27.345Z,98284.13
2023-01-17T11:16:02.282Z,98286.38
2023-01-17T11:18:33.371Z,98287.77
2023-01-17T11:21:12.387Z,98285.71
2023-01-17T11:23:52.761Z,98286.22
2023-01-17T11:26:32.880Z,98283.71
2023-01-17T11:29:34.646Z,98284.45
2023-01-17T11:32:33.974Z,98279.81
2023-01-17T11:35:22.572Z,98275.36
2023-01-17T11:38:03.306Z,98270.16
2023-01-17T11:40:43.462Z,98268.64
2023-01-17T11:43:11.486Z,98271.27
2023-01-17T11:45:41.082Z,98273.82
2023-01-17T11:48:09.086Z,98274.41
2023-01-17T11:50:44.074Z,98270.23
2023-01-17T11:53:23.148Z,98266.24
2023-01-17T11:55:59.572Z,98267.17
2023-01-17T11:58:28.649Z,98262.70
2023-01-17T12:01:10.151Z,98259.94
2023-01-17T12:03:53.632Z,98253.02
2023-01-17T12:07:06.591Z,98250.34
2023-01-17T12:09:43.522Z,98254.88
2023-01-17T12:12:53.018Z,98256.90
2023-01-17T12:15:52.150Z,98255.56
2023-01-17T12:18:47.275Z,98250.61
2023-01-17T12:21:31.873Z,98247.80
2023-01-17T12:24:21.121Z,98243.49
2023-01-17T12:27:20.296Z,98252.84
2023-01-17T12:30:03.486Z,98254.84
2023-01-17T12:32:53.047Z,98252.31
2023-01-17T12:35:38.834Z,98253.20
2023-01-17T12:38:14.085Z,98257.34
2023-01-17T12:40:51.259Z,98258.20
2023-01-17T12:43:23.626Z,98257.23
2023-01-17T12:45:54.781Z,98257.85
2023-01-17T12:48:23.837Z,98257.04
2023-01-17T12:50:51.744Z,98249.66
2023-01-17T12:53:24.337Z,98244.77
2023-01-17T12:56:09.243Z,98237.48
2023-01-17T12:58:44.907Z,98232.69
2023-01-17T13:01:25.572Z,98223.96
2023-01-17T13:03:55.521Z,98215.38
2023-01-17T13:06:36.132Z,98213.40
2023-01-17T13:09:05.661Z,98215.80
2023-01-17T13:11:46.681Z,98221.30
2023-01-17T13:14:14.566Z,98221.80
2023-01-17T13:16:57.135Z,98222.84
2023-01-17T13:19:37.453Z,98226.63
2023-01-17T13:22:09.209Z,98231.45
2023-01-17T13:24:57.249Z,98235.96
2023-01-17T13:27:38.199Z,98236.55
2023-01-17T13:30:24.588Z,98238.33
2023-01-17T13:33:28.502Z,98246.39
2023-01-17T13:36:38.581Z,98245.79
2023-01-17T13:39:44.160Z,98242.38
2023-01-17T13:42:19.411Z,98241.76
2023-01-17T13:44:47.640Z,98237.48
2023-01-17T13:47:18.701Z,98234.24
2023-01-17T13:49:51.604Z,98232.72
2023-01-17T13:52:19.438Z,98234.62
2023-01-17T13:54:49.873Z,98237.80
2023-01-17T13:57:29.376Z,98238.00
2023-01-17T14:00:23.487Z,98237.20
2023-01-17T14:02:53.306Z,98237.28
2023-01-17T14:05:31.552Z,98236.95
2023-01-17T14:08:17.432Z,98231.41
2023-01-17T14:10:50.522Z,98234.52
2023-01-17T14:13:37.225Z,98240.17
2023-01-17T14:16:26.833Z,98243.75
2023-01-17T14:18:55.957Z,98237.95
2023-01-17T14:21:33.607Z,98232.80
2023-01-17T14:24:10.855Z,98235.48
2023-01-17T14:27:19.194Z,98232.44
2023-01-17T14:29:57.387Z,98224.90
2023-01-17T14:32:35.346Z,98221.98
2023-01-17T14:35:05.535Z,98222.10
2023-01-17T14:37:33.393Z,98217.70
2023-01-17T14:40:01.953Z,98213.09
2023-01-17T14:42:31.805Z,98208.05
2023-01-17T14:45:09.689Z,98203.71
2023-01-17T14:47:39.434Z,98205.58
2023-01-17T14:50:29.435Z,98209.98
2023-01-17T14:53:15.697Z,98208.58
2023-01-17T14:55:52.364Z,98200.15
2023-01-17T14:58:20.334Z,98186.75
2023-01-17T15:00:50.802Z,98187.77
2023-01-17T15:03:19.171Z,98194.77
2023-01-17T15:05:49.934Z,98198.25
2023-01-17T15:08:20.505Z,98197.71
2023-01-17T15:11:03.188Z,98193.80
2023-01-17T15:13:44.220Z,98187.88
2023-01-17T15:16:28.517Z,98181.98
2023-01-17T15:18:57.546Z,98176.49
2023-01-17T15:21:32.390Z,98171.85
2023-01-17T15:24:04.800Z,98167.92
2023-01-17T15:26:42.329Z,98163.13
2023-01-17T15:29:18.775Z,98162.40
2023-01-17T15:31:58.279Z,98160.66
2023-01-17T15:34:44.120Z,98153.79
2023-01-17T15:37:34.660Z,98154.58
2023-01-17T15:40:16.901Z,98157.59
2023-01-17T15:42:49.025Z,98148.98
2023-01-17T15:45:20.387Z,98139.61
2023-01-17T15:47:49.056Z,98130.30
2023-01-17T15:50:19.727Z,98125.05
2023-01-17T15:52:55.132Z,98133.08
2023-01-17T15:55:30.243Z,98135.14
2023-01-17T15:57:58.443Z,98127.36
2023-01-17T16:00:38.392Z,98130.77
2023-01-17T16:03:31.770Z,98137.04
2023-01-17T16:06:02.932Z,98138.83
2023-01-17T16:08:33.862Z,98136.90
2023-01-17T16:11:06.213Z,98137.86
2023-01-17T16:13:38.682Z,98138.77
2023-01-17T16:16:15.784Z,98143.48
2023-01-17T16:18:46.573Z,98142.63
2023-01-17T16:21:19.899Z,98145.53
2023-01-17T16:23:48.478Z,98144.88
2023-01-17T16:26:16.854Z,98138.49
2023-01-17T16:28:46.047Z,98129.38
2023-01-17T16:31:14.496Z,98127.77
2023-01-17T16:33:42.613Z,98118.45
2023-01-17T16:36:14.742Z,98112.71
2023-01-17T16:38:44.727Z,98108.03
2023-01-17T16:41:13.242Z,98105.87
2023-01-17T16:43:41.635Z,98104.55
2023-01-17T16:46:12.001Z,98103.44
2023-01-17T16:48:40.087Z,98096.30
2023-01-17T16:51:08.467Z,98090.02
2023-01-17T16:53:37.616Z,98095.13
2023-01-17T16:56:10.251Z,98097.74
2023-01-17T16:58:38.221Z,98092.13
2023-01-17T17:01:16.594Z,98083.97
2023-01-17T17:03:48.558Z,98077.30
2023-01-17T17:06:22.577Z,98072.15
2023-01-17T17:08:50.659Z,98059.55
2023-01-17T17:11:22.034Z,98059.31
2023-01-17T17:13:54.181Z,98055.21
2023-01-17T17:16:26.624Z,98048.17
2023-01-17T17:18:57.405Z,98039.88
2023-01-17T17:21:26.398Z,98035.67
2023-01-17T17:23:57.126Z,98028.11
2023-01-17T17:26:34.234Z,98019.20
2023-01-17T17:29:04.082Z,98016.46
2023-01-17T17:31:32.410Z,98010.12
2023-01-17T17:34:02.259Z,98003.48
2023-01-17T17:36:30.977Z,97997.14
2023-01-17T17:38:59.490Z,97991.50
2023-01-17T17:41:29.452Z,97986.23
2023-01-17T17:43:59.644Z,97968.22
2023-01-17T17:46:29.283Z,97956.08
2023-01-17T17:48:58.332Z,97952.73
2023-01-17T17:51:32.566Z,97942.95
2023-01-17T17:54:03.643Z,97933.94
2023-01-17T17:56:32.304Z,97926.75
2023-01-17T17:59:01.816Z,97914.18
2023-01-17T18:01:30.090Z,97902.36
2023-01-17T18:04:02.512Z,97889.61
2023-01-17T18:06:30.687Z,97881.73
2023-01-17T18:08:58.634Z,97873.36
2023-01-17T18:11:27.622Z,97866.32
2023-01-17T18:13:59.996Z,97855.02
2023-01-17T18:16:30.925Z,97845.35
2023-01-17T18:18:59.742Z,97837.73
2023-01-17T18:21:30.931Z,97830.42
2023-01-17T18:24:10.917Z,97826.23
2023-01-17T18:26:44.923Z,97817.11
2023-01-17T18:29:16.116Z,97815.63
2023-01-17T18:31:45.146Z,97813.08
2023-01-17T18:34:16.107Z,97809.54
2023-01-17T18:36:44.068Z,97811.71
2023-01-17T18:39:17.839Z,97808.27
2023-01-17T18:41:46.307Z,97807.15
2023-01-17T18:44:15.433Z,97803.86
2023-01-17T18:46:43.521Z,97795.83
2023-01-17T18:49:13.112Z,97784.73
2023-01-17T18:51:42.829Z,97777.19
2023-01-17T18:54:11.097Z,97772.39
2023-01-17T18:56:39.279Z,97765.08
2023-01-17T18:59:07.334Z,97761.21
2023-01-17T19:01:36.361Z,97751.56
2023-01-17T19:04:06.020Z,97751.63
2023-01-17T19:06:42.899Z,97749.45
2023-01-17T19:09:12.516Z,97737.21
2023-01-17T19:11:43.098Z,97719.13
2023-01-17T19:14:12.446Z,97712.41
2023-01-17T19:16:41.864Z,97709.16
2023-01-17T19:19:14.267Z,97701.98
2023-01-17T19:21:43.146Z,97695.42
2023-01-17T19:24:13.538Z,97688.80
2023-01-17T19:26:43.313Z,97688.78
2023-01-17T19:29:12.295Z,97681.79
2023-01-17T19:31:43.144Z,97678.70
2023-01-17T19:34:13.913Z,97671.84
2023-01-17T19:36:42.823Z,97672.13
2023-01-17T19:39:10.984Z,97669.71
2023-01-17T19:41:44.989Z,97666.02
2023-01-17T19:44:14.646Z,97665.33
2023-01-17T19:46:44.010Z,97659.31
2023-01-17T19:49:12.250Z,97651.75
2023-01-17T19:51:40.437Z,97642.95
2023-01-17T19:54:08.962Z,97634.33
2023-01-17T19:56:36.950Z,97631.86
2023-01-17T19:59:05.086Z,97627.64
2023-01-17T20:01:34.519Z,97618.67
2023-01-17T20:04:04.162Z,97613.98
2023-01-17T20:06:35.676Z,97606.84
2023-01-17T20:09:05.183Z,97601.73
2023-01-17T20:11:36.491Z,97596.69
2023-01-17T20:14:07.739Z,97588.11
2023-01-17T20:16:37.226Z,97577.55
2023-01-17T20:19:05.821Z,97569.46
2023-01-17T20:21:34.544Z,97568.33
2023-01-17T20:24:05.422Z,97562.70
2023-01-17T20:26:35.166Z,97557.07
2023-01-17T20:29:10.249Z,97553.16
2023-01-17T20:31:40.528Z,97550.04
2023-01-17T20:34:11.692Z,97544.16
2023-01-17T20:36:41.629Z,97535.46
2023-01-17T20:39:14.977Z,97527.89
2023-01-17T20:41:51.527Z,97527.27
2023-01-17T20:44:19.674Z,97523.27
2023-01-17T20:46:49.422Z,97518.95
2023-01-17T20:49:19.634Z,97515.00
2023-01-17T20:51:48.524Z,97519.85
2023-01-17T20:54:19.721Z,97518.83
2023-01-17T20:56:47.982Z,97511.50
2023-01-17T20:59:22.368Z,97508.30
2023-01-17T21:01:50.812Z,97511.54
2023-01-17T21:04:25.695Z,97513.41
2023-01-17T21:06:54.818Z,97517.00
2023-01-17T21:09:22.913Z,97514.54
2023-01-17T21:11:52.191Z,97501.97
2023-01-17T21:14:21.781Z,97496.88
2023-01-17T21:16:50.440Z,97493.41
2023-01-17T21:19:20.445Z,97485.35
2023-01-17T21:21:50.026Z,97488.08
2023-01-17T21:24:19.731Z,97476.31
2023-01-17T21:26:49.822Z,97474.91
2023-01-17T21:29:17.944Z,97483.77
2023-01-17T21:31:46.412Z,97473.71
2023-01-17T21:34:14.628Z,97474.02
2023-01-17T21:36:43.016Z,97473.54
2023-01-17T21:39:15.749Z,97474.13
2023-01-17T21:41:46.334Z,97476.14
2023-01-17T21:44:23.765Z,97465.64
2023-01-17T21:46:54.215Z,97466.27
2023-01-17T21:49:24.589Z,97472.95
2023-01-17T21:51:52.742Z,97466.11
2023-01-17T21:54:42.100Z,97467.51
2023-01-17T21:57:29.616Z,97472.55
2023-01-17T21:59:57.747Z,97466.23
2023-01-17T22:02:25.757Z,97471.64
2023-01-17T22:04:56.851Z,97481.08
2023-01-17T22:07:27.164Z,97469.98
2023-01-17T22:09:56.404Z,97472.62
2023-01-17T22:12:24.570Z,97476.13
2023-01-17T22:14:52.760Z,97471.28
2023-01-17T22:17:21.149Z,97466.58
2023-01-17T22:19:49.183Z,97473.30
2023-01-17T22:22:17.145Z,97471.29
2023-01-17T22:24:45.117Z,97475.48
2023-01-17T22:27:13.729Z,97473.25
2023-01-17T22:29:41.695Z,97472.13
2023-01-17T22:32:09.601Z,97475.52
2023-01-17T22:34:37.419Z,97478.14
2023-01-17T22:37:10.217Z,97476.39
2023-01-17T22:39:39.144Z,97479.45
2023-01-17T22:42:07.252Z,97476.79
2023-01-17T22:44:35.163Z,97471.35
2023-01-17T22:47:03.330Z,97485.67
2023-01-17T22:49:31.211Z,97491.67
2023-01-17T22:51:59.113Z,97500.29
2023-01-17T22:54:26.856Z,97510.04
2023-01-17T22:56:54.780Z,97507.48
2023-01-17T22:59:24.176Z,97510.73
2023-01-17T23:01:53.790Z,97517.41
2023-01-17T23:04:22.362Z,97512.08
2023-01-17T23:06:50.730Z,97519.05
2023-01-17T23:09:18.809Z,97524.91
2023-01-17T23:11:52.084Z,97526.06
2023-01-17T23:14:30.755Z,97515.59
2023-01-17T23:17:20.671Z,97516.38
2023-01-17T23:19:54.773Z,97518.89
2023-01-17T23:22:28.302Z,97514.36
2023-01-17T23:24:59.314Z,97507.77
2023-01-17T23:28:00.809Z,97516.27
2023-01-17T23:30:34.785Z,97516.86
2023-01-17T23:33:07.177Z,97519.42
2023-01-17T23:35:41.742Z,97518.16
2023-01-17T23:38:26.339Z,97512.04
2023-01-17T23:41:21.123Z,97519.28
2023-01-17T23:43:57.245Z,97521.65
2023-01-17T23:46:26.935Z,97523.71
2023-01-17T23:48:55.366Z,97527.45
2023-01-17T23:51:23.407Z,97526.04
2023-01-17T23:53:57.584Z,97531.88
2023-01-17T23:56:25.570Z,97536.65
2023-01-17T23:58:53.747Z,97536.38
